sensor_id;sensor_type;location;lat;lon;timestamp;P1;durP1;ratioP1;P2;durP2;ratioP2
51495;SDS011;37572;52.094;4.870;2023-04-15T00:01:13;8.40;;;6.60;;
51495;SDS011;37572;52.094;4.870;2023-04-15T00:03:43;10.25;;;4.97;;
51495;SDS011;37572;52.094;4.870;2023-04-15T00:06:08;9.20;;;7.87;;
51495;SDS011;37572;52.094;4.870;2023-04-15T00:08:33;6.60;;;5.00;;
51495;SDS011;37572;52.094;4.870;2023-04-15T00:10:59;9.25;;;6.32;;
51495;SDS011;37572;52.094;4.870;2023-04-15T00:13:26;9.35;;;6.22;;
51495;SDS011;37572;52.094;4.870;2023-04-15T00:15:52;6.97;;;5.13;;
51495;SDS011;37572;52.094;4.870;2023-04-15T00:18:17;10.07;;;5.50;;
51495;SDS011;37572;52.094;4.870;2023-04-15T00:20:42;9.20;;;5.85;;
51495;SDS011;37572;52.094;4.870;2023-04-15T00:23:08;6.83;;;4.80;;
51495;SDS011;37572;52.094;4.870;2023-04-15T00:25:33;8.27;;;4.97;;
51495;SDS011;37572;52.094;4.870;2023-04-15T00:27:58;7.93;;;4.88;;
51495;SDS011;37572;52.094;4.870;2023-04-15T00:30:24;8.95;;;4.97;;
51495;SDS011;37572;52.094;4.870;2023-04-15T00:32:50;6.82;;;5.03;;
51495;SDS011;37572;52.094;4.870;2023-04-15T00:35:15;6.53;;;4.33;;
51495;SDS011;37572;52.094;4.870;2023-04-15T00:37:42;5.57;;;4.20;;
51495;SDS011;37572;52.094;4.870;2023-04-15T00:40:09;6.57;;;5.93;;
51495;SDS011;37572;52.094;4.870;2023-04-15T00:42:36;10.77;;;4.18;;
51495;SDS011;37572;52.094;4.870;2023-04-15T00:45:03;6.18;;;5.05;;
51495;SDS011;37572;52.094;4.870;2023-04-15T00:47:29;8.80;;;4.35;;
51495;SDS011;37572;52.094;4.870;2023-04-15T00:49:55;8.50;;;4.72;;
51495;SDS011;37572;52.094;4.870;2023-04-15T00:52:21;6.88;;;4.80;;
51495;SDS011;37572;52.094;4.870;2023-04-15T00:54:47;7.00;;;4.30;;
51495;SDS011;37572;52.094;4.870;2023-04-15T00:57:12;8.25;;;5.45;;
51495;SDS011;37572;52.094;4.870;2023-04-15T00:59:38;7.37;;;4.60;;
51495;SDS011;37572;52.094;4.870;2023-04-15T01:02:03;7.03;;;5.03;;
51495;SDS011;37572;52.094;4.870;2023-04-15T01:04:29;7.47;;;4.53;;
51495;SDS011;37572;52.094;4.870;2023-04-15T01:06:55;7.75;;;4.75;;
51495;SDS011;37572;52.094;4.870;2023-04-15T01:09:21;10.98;;;7.25;;
51495;SDS011;37572;52.094;4.870;2023-04-15T01:11:46;7.85;;;5.60;;
51495;SDS011;37572;52.094;4.870;2023-04-15T01:14:12;8.43;;;5.30;;
51495;SDS011;37572;52.094;4.870;2023-04-15T01:16:37;7.77;;;5.93;;
51495;SDS011;37572;52.094;4.870;2023-04-15T01:19:05;7.32;;;5.53;;
51495;SDS011;37572;52.094;4.870;2023-04-15T01:21:34;10.35;;;5.78;;
51495;SDS011;37572;52.094;4.870;2023-04-15T01:24:01;7.88;;;5.95;;
51495;SDS011;37572;52.094;4.870;2023-04-15T01:26:32;10.25;;;7.05;;
51495;SDS011;37572;52.094;4.870;2023-04-15T01:28:58;8.90;;;6.68;;
51495;SDS011;37572;52.094;4.870;2023-04-15T01:31:23;9.30;;;6.40;;
51495;SDS011;37572;52.094;4.870;2023-04-15T01:33:48;9.23;;;7.27;;
51495;SDS011;37572;52.094;4.870;2023-04-15T01:36:14;11.13;;;7.13;;
51495;SDS011;37572;52.094;4.870;2023-04-15T01:38:39;7.90;;;6.63;;
51495;SDS011;37572;52.094;4.870;2023-04-15T01:41:05;8.32;;;5.65;;
51495;SDS011;37572;52.094;4.870;2023-04-15T01:43:32;9.48;;;8.27;;
51495;SDS011;37572;52.094;4.870;2023-04-15T01:45:58;11.52;;;7.35;;
51495;SDS011;37572;52.094;4.870;2023-04-15T01:48:23;12.13;;;6.80;;
51495;SDS011;37572;52.094;4.870;2023-04-15T01:50:48;9.82;;;6.68;;
51495;SDS011;37572;52.094;4.870;2023-04-15T01:53:14;9.63;;;6.40;;
51495;SDS011;37572;52.094;4.870;2023-04-15T01:55:40;9.52;;;6.13;;
51495;SDS011;37572;52.094;4.870;2023-04-15T01:58:05;9.77;;;6.95;;
51495;SDS011;37572;52.094;4.870;2023-04-15T02:00:31;11.23;;;6.47;;
51495;SDS011;37572;52.094;4.870;2023-04-15T02:02:57;7.90;;;5.88;;
51495;SDS011;37572;52.094;4.870;2023-04-15T02:05:24;9.23;;;6.72;;
51495;SDS011;37572;52.094;4.870;2023-04-15T02:07:50;9.43;;;5.88;;
51495;SDS011;37572;52.094;4.870;2023-04-15T02:10:15;9.10;;;7.53;;
51495;SDS011;37572;52.094;4.870;2023-04-15T02:12:41;11.55;;;6.47;;
51495;SDS011;37572;52.094;4.870;2023-04-15T02:15:06;10.93;;;6.55;;
51495;SDS011;37572;52.094;4.870;2023-04-15T02:17:33;11.65;;;7.40;;
51495;SDS011;37572;52.094;4.870;2023-04-15T02:19:59;9.52;;;7.45;;
51495;SDS011;37572;52.094;4.870;2023-04-15T02:22:25;14.10;;;7.97;;
51495;SDS011;37572;52.094;4.870;2023-04-15T02:24:50;10.75;;;8.55;;
51495;SDS011;37572;52.094;4.870;2023-04-15T02:27:15;11.13;;;7.20;;
51495;SDS011;37572;52.094;4.870;2023-04-15T02:29:42;10.05;;;7.18;;
51495;SDS011;37572;52.094;4.870;2023-04-15T02:32:08;10.82;;;6.88;;
51495;SDS011;37572;52.094;4.870;2023-04-15T02:34:35;11.82;;;6.43;;
51495;SDS011;37572;52.094;4.870;2023-04-15T02:37:03;10.05;;;7.05;;
51495;SDS011;37572;52.094;4.870;2023-04-15T02:39:29;9.55;;;6.97;;
51495;SDS011;37572;52.094;4.870;2023-04-15T02:41:54;11.67;;;7.43;;
51495;SDS011;37572;52.094;4.870;2023-04-15T02:44:20;10.38;;;6.85;;
51495;SDS011;37572;52.094;4.870;2023-04-15T02:46:47;12.43;;;7.22;;
51495;SDS011;37572;52.094;4.870;2023-04-15T02:49:16;10.82;;;6.93;;
51495;SDS011;37572;52.094;4.870;2023-04-15T02:51:41;10.45;;;9.23;;
51495;SDS011;37572;52.094;4.870;2023-04-15T02:54:06;9.30;;;6.93;;
51495;SDS011;37572;52.094;4.870;2023-04-15T02:56:32;11.10;;;7.18;;
51495;SDS011;37572;52.094;4.870;2023-04-15T02:58:58;11.10;;;7.70;;
51495;SDS011;37572;52.094;4.870;2023-04-15T03:01:23;13.00;;;7.70;;
51495;SDS011;37572;52.094;4.870;2023-04-15T03:03:48;8.77;;;6.77;;
51495;SDS011;37572;52.094;4.870;2023-04-15T03:06:14;9.40;;;6.18;;
51495;SDS011;37572;52.094;4.870;2023-04-15T03:08:39;10.45;;;6.63;;
51495;SDS011;37572;52.094;4.870;2023-04-15T03:11:05;11.77;;;7.53;;
51495;SDS011;37572;52.094;4.870;2023-04-15T03:13:32;11.55;;;7.80;;
51495;SDS011;37572;52.094;4.870;2023-04-15T03:15:57;10.38;;;7.00;;
51495;SDS011;37572;52.094;4.870;2023-04-15T03:18:24;9.50;;;6.95;;
51495;SDS011;37572;52.094;4.870;2023-04-15T03:20:49;12.23;;;8.00;;
51495;SDS011;37572;52.094;4.870;2023-04-15T03:23:14;9.57;;;6.72;;
51495;SDS011;37572;52.094;4.870;2023-04-15T03:25:40;10.55;;;7.28;;
51495;SDS011;37572;52.094;4.870;2023-04-15T03:28:05;9.85;;;6.40;;
51495;SDS011;37572;52.094;4.870;2023-04-15T03:30:31;10.37;;;7.43;;
51495;SDS011;37572;52.094;4.870;2023-04-15T03:32:56;10.82;;;6.97;;
51495;SDS011;37572;52.094;4.870;2023-04-15T03:35:21;10.73;;;7.60;;
51495;SDS011;37572;52.094;4.870;2023-04-15T03:37:46;12.77;;;7.73;;
51495;SDS011;37572;52.094;4.870;2023-04-15T03:40:13;9.45;;;7.47;;
51495;SDS011;37572;52.094;4.870;2023-04-15T03:42:38;10.75;;;7.32;;
51495;SDS011;37572;52.094;4.870;2023-04-15T03:45:04;9.80;;;6.80;;
51495;SDS011;37572;52.094;4.870;2023-04-15T03:47:29;11.57;;;8.00;;
51495;SDS011;37572;52.094;4.870;2023-04-15T03:49:55;9.67;;;7.10;;
51495;SDS011;37572;52.094;4.870;2023-04-15T03:52:20;12.65;;;7.68;;
51495;SDS011;37572;52.094;4.870;2023-04-15T03:54:45;14.67;;;8.00;;
51495;SDS011;37572;52.094;4.870;2023-04-15T03:57:11;14.27;;;8.15;;
51495;SDS011;37572;52.094;4.870;2023-04-15T03:59:37;11.90;;;7.95;;
51495;SDS011;37572;52.094;4.870;2023-04-15T04:02:02;14.45;;;8.40;;
51495;SDS011;37572;52.094;4.870;2023-04-15T04:04:27;11.13;;;9.60;;
51495;SDS011;37572;52.094;4.870;2023-04-15T04:06:52;12.13;;;8.90;;
51495;SDS011;37572;52.094;4.870;2023-04-15T04:09:18;12.60;;;10.13;;
51495;SDS011;37572;52.094;4.870;2023-04-15T04:11:43;12.57;;;8.03;;
51495;SDS011;37572;52.094;4.870;2023-04-15T04:14:09;12.57;;;8.45;;
51495;SDS011;37572;52.094;4.870;2023-04-15T04:16:34;12.60;;;7.90;;
51495;SDS011;37572;52.094;4.870;2023-04-15T04:19:00;11.57;;;8.20;;
51495;SDS011;37572;52.094;4.870;2023-04-15T04:21:25;12.40;;;7.90;;
51495;SDS011;37572;52.094;4.870;2023-04-15T04:23:50;13.50;;;8.35;;
51495;SDS011;37572;52.094;4.870;2023-04-15T04:26:16;14.23;;;9.98;;
51495;SDS011;37572;52.094;4.870;2023-04-15T04:28:41;11.67;;;8.00;;
51495;SDS011;37572;52.094;4.870;2023-04-15T04:31:07;12.40;;;8.67;;
51495;SDS011;37572;52.094;4.870;2023-04-15T04:33:32;11.20;;;8.27;;
51495;SDS011;37572;52.094;4.870;2023-04-15T04:35:57;12.63;;;7.82;;
51495;SDS011;37572;52.094;4.870;2023-04-15T04:38:23;12.05;;;7.13;;
51495;SDS011;37572;52.094;4.870;2023-04-15T04:40:48;11.45;;;7.63;;
51495;SDS011;37572;52.094;4.870;2023-04-15T04:43:14;10.50;;;7.80;;
51495;SDS011;37572;52.094;4.870;2023-04-15T04:45:40;11.07;;;6.85;;
51495;SDS011;37572;52.094;4.870;2023-04-15T04:48:05;11.52;;;7.95;;
51495;SDS011;37572;52.094;4.870;2023-04-15T04:50:32;12.10;;;8.32;;
51495;SDS011;37572;52.094;4.870;2023-04-15T04:52:59;13.57;;;8.00;;
51495;SDS011;37572;52.094;4.870;2023-04-15T04:55:24;11.27;;;7.78;;
51495;SDS011;37572;52.094;4.870;2023-04-15T04:57:50;12.67;;;7.70;;
51495;SDS011;37572;52.094;4.870;2023-04-15T05:00:16;14.65;;;8.00;;
51495;SDS011;37572;52.094;4.870;2023-04-15T05:02:41;13.93;;;8.05;;
51495;SDS011;37572;52.094;4.870;2023-04-15T05:05:08;11.20;;;6.75;;
51495;SDS011;37572;52.094;4.870;2023-04-15T05:07:34;15.25;;;8.27;;
51495;SDS011;37572;52.094;4.870;2023-04-15T05:09:59;13.50;;;8.73;;
51495;SDS011;37572;52.094;4.870;2023-04-15T05:12:25;11.15;;;7.45;;
51495;SDS011;37572;52.094;4.870;2023-04-15T05:14:50;12.32;;;8.27;;
51495;SDS011;37572;52.094;4.870;2023-04-15T05:17:16;14.27;;;8.20;;
51495;SDS011;37572;52.094;4.870;2023-04-15T05:19:41;13.30;;;8.60;;
51495;SDS011;37572;52.094;4.870;2023-04-15T05:22:06;14.43;;;8.40;;
51495;SDS011;37572;52.094;4.870;2023-04-15T05:24:32;14.13;;;8.30;;
51495;SDS011;37572;52.094;4.870;2023-04-15T05:26:57;14.30;;;9.13;;
51495;SDS011;37572;52.094;4.870;2023-04-15T05:29:22;12.77;;;8.87;;
51495;SDS011;37572;52.094;4.870;2023-04-15T05:31:48;16.83;;;8.73;;
51495;SDS011;37572;52.094;4.870;2023-04-15T05:34:13;16.67;;;9.37;;
51495;SDS011;37572;52.094;4.870;2023-04-15T05:36:40;13.88;;;8.45;;
51495;SDS011;37572;52.094;4.870;2023-04-15T05:39:06;13.63;;;11.13;;
51495;SDS011;37572;52.094;4.870;2023-04-15T05:41:31;14.87;;;9.43;;
51495;SDS011;37572;52.094;4.870;2023-04-15T05:43:56;15.27;;;8.77;;
51495;SDS011;37572;52.094;4.870;2023-04-15T05:46:22;13.90;;;8.60;;
51495;SDS011;37572;52.094;4.870;2023-04-15T05:48:47;11.63;;;9.70;;
51495;SDS011;37572;52.094;4.870;2023-04-15T05:51:12;12.13;;;8.20;;
51495;SDS011;37572;52.094;4.870;2023-04-15T05:53:38;11.40;;;7.78;;
51495;SDS011;37572;52.094;4.870;2023-04-15T05:56:05;11.13;;;7.05;;
51495;SDS011;37572;52.094;4.870;2023-04-15T05:58:30;11.27;;;7.60;;
51495;SDS011;37572;52.094;4.870;2023-04-15T06:00:55;11.87;;;7.80;;
51495;SDS011;37572;52.094;4.870;2023-04-15T06:03:21;10.25;;;7.20;;
51495;SDS011;37572;52.094;4.870;2023-04-15T06:05:46;10.75;;;7.43;;
51495;SDS011;37572;52.094;4.870;2023-04-15T06:08:12;10.48;;;7.38;;
51495;SDS011;37572;52.094;4.870;2023-04-15T06:10:37;12.75;;;8.38;;
51495;SDS011;37572;52.094;4.870;2023-04-15T06:13:03;9.15;;;6.78;;
51495;SDS011;37572;52.094;4.870;2023-04-15T06:15:28;12.00;;;7.03;;
51495;SDS011;37572;52.094;4.870;2023-04-15T06:17:54;10.65;;;6.97;;
51495;SDS011;37572;52.094;4.870;2023-04-15T06:20:20;11.48;;;7.13;;
51495;SDS011;37572;52.094;4.870;2023-04-15T06:22:46;10.73;;;7.30;;
51495;SDS011;37572;52.094;4.870;2023-04-15T06:25:12;11.75;;;6.47;;
51495;SDS011;37572;52.094;4.870;2023-04-15T06:27:38;10.77;;;7.63;;
51495;SDS011;37572;52.094;4.870;2023-04-15T06:30:03;9.88;;;6.63;;
51495;SDS011;37572;52.094;4.870;2023-04-15T06:32:30;11.18;;;6.57;;
51495;SDS011;37572;52.094;4.870;2023-04-15T06:34:56;11.27;;;7.38;;
51495;SDS011;37572;52.094;4.870;2023-04-15T06:37:22;10.82;;;6.68;;
51495;SDS011;37572;52.094;4.870;2023-04-15T06:39:47;11.07;;;6.30;;
51495;SDS011;37572;52.094;4.870;2023-04-15T06:42:12;9.18;;;6.40;;
51495;SDS011;37572;52.094;4.870;2023-04-15T06:44:38;10.50;;;6.93;;
51495;SDS011;37572;52.094;4.870;2023-04-15T06:47:04;8.07;;;6.10;;
51495;SDS011;37572;52.094;4.870;2023-04-15T06:49:29;8.27;;;6.43;;
51495;SDS011;37572;52.094;4.870;2023-04-15T06:51:54;8.57;;;6.47;;
51495;SDS011;37572;52.094;4.870;2023-04-15T06:54:20;10.40;;;6.95;;
51495;SDS011;37572;52.094;4.870;2023-04-15T06:56:45;9.75;;;6.72;;
51495;SDS011;37572;52.094;4.870;2023-04-15T06:59:11;11.50;;;6.63;;
51495;SDS011;37572;52.094;4.870;2023-04-15T07:01:38;9.15;;;6.75;;
51495;SDS011;37572;52.094;4.870;2023-04-15T07:04:04;9.90;;;6.93;;
51495;SDS011;37572;52.094;4.870;2023-04-15T07:06:30;9.00;;;6.68;;
51495;SDS011;37572;52.094;4.870;2023-04-15T07:08:56;9.98;;;6.50;;
51495;SDS011;37572;52.094;4.870;2023-04-15T07:11:22;9.85;;;6.85;;
51495;SDS011;37572;52.094;4.870;2023-04-15T07:13:47;9.50;;;7.17;;
51495;SDS011;37572;52.094;4.870;2023-04-15T07:16:12;9.63;;;7.23;;
51495;SDS011;37572;52.094;4.870;2023-04-15T07:18:38;10.13;;;6.85;;
51495;SDS011;37572;52.094;4.870;2023-04-15T07:21:04;10.40;;;7.45;;
51495;SDS011;37572;52.094;4.870;2023-04-15T07:23:29;9.57;;;6.68;;
51495;SDS011;37572;52.094;4.870;2023-04-15T07:25:55;12.02;;;8.27;;
51495;SDS011;37572;52.094;4.870;2023-04-15T07:28:21;10.23;;;6.95;;
51495;SDS011;37572;52.094;4.870;2023-04-15T07:30:47;10.82;;;7.43;;
51495;SDS011;37572;52.094;4.870;2023-04-15T07:33:12;12.90;;;8.23;;
51495;SDS011;37572;52.094;4.870;2023-04-15T07:35:38;9.70;;;7.75;;
51495;SDS011;37572;52.094;4.870;2023-04-15T07:38:03;11.57;;;8.13;;
51495;SDS011;37572;52.094;4.870;2023-04-15T07:40:28;11.80;;;8.00;;
51495;SDS011;37572;52.094;4.870;2023-04-15T07:42:54;11.43;;;7.80;;
51495;SDS011;37572;52.094;4.870;2023-04-15T07:45:22;10.80;;;7.40;;
51495;SDS011;37572;52.094;4.870;2023-04-15T07:47:47;9.38;;;7.22;;
51495;SDS011;37572;52.094;4.870;2023-04-15T07:50:13;9.73;;;7.03;;
51495;SDS011;37572;52.094;4.870;2023-04-15T07:52:38;9.25;;;6.75;;
51495;SDS011;37572;52.094;4.870;2023-04-15T07:55:04;10.60;;;7.47;;
51495;SDS011;37572;52.094;4.870;2023-04-15T07:57:32;12.15;;;6.82;;
51495;SDS011;37572;52.094;4.870;2023-04-15T07:59:59;10.32;;;7.20;;
51495;SDS011;37572;52.094;4.870;2023-04-15T08:02:24;10.45;;;6.65;;
51495;SDS011;37572;52.094;4.870;2023-04-15T08:04:50;8.73;;;5.88;;
51495;SDS011;37572;52.094;4.870;2023-04-15T08:07:16;6.70;;;5.00;;
51495;SDS011;37572;52.094;4.870;2023-04-15T08:09:42;7.80;;;4.93;;
51495;SDS011;37572;52.094;4.870;2023-04-15T08:12:07;7.60;;;5.03;;
51495;SDS011;37572;52.094;4.870;2023-04-15T08:14:36;6.57;;;3.85;;
51495;SDS011;37572;52.094;4.870;2023-04-15T08:17:01;6.28;;;4.45;;
51495;SDS011;37572;52.094;4.870;2023-04-15T08:19:28;7.57;;;4.72;;
51495;SDS011;37572;52.094;4.870;2023-04-15T08:21:53;7.88;;;5.00;;
51495;SDS011;37572;52.094;4.870;2023-04-15T08:24:19;7.35;;;4.75;;
51495;SDS011;37572;52.094;4.870;2023-04-15T08:26:45;7.07;;;4.70;;
51495;SDS011;37572;52.094;4.870;2023-04-15T08:29:11;7.05;;;4.40;;
51495;SDS011;37572;52.094;4.870;2023-04-15T08:31:36;7.40;;;4.85;;
51495;SDS011;37572;52.094;4.870;2023-04-15T08:34:02;7.82;;;4.85;;
51495;SDS011;37572;52.094;4.870;2023-04-15T08:36:27;8.60;;;5.43;;
51495;SDS011;37572;52.094;4.870;2023-04-15T08:38:53;9.52;;;5.13;;
51495;SDS011;37572;52.094;4.870;2023-04-15T08:41:22;8.82;;;5.68;;
51495;SDS011;37572;52.094;4.870;2023-04-15T08:43:53;9.80;;;5.38;;
51495;SDS011;37572;52.094;4.870;2023-04-15T08:46:21;7.38;;;4.63;;
51495;SDS011;37572;52.094;4.870;2023-04-15T08:48:47;6.40;;;5.25;;
51495;SDS011;37572;52.094;4.870;2023-04-15T08:51:13;11.63;;;4.35;;
51495;SDS011;37572;52.094;4.870;2023-04-15T08:53:40;7.47;;;4.20;;
51495;SDS011;37572;52.094;4.870;2023-04-15T08:56:07;5.82;;;3.92;;
51495;SDS011;37572;52.094;4.870;2023-04-15T08:58:34;7.07;;;4.22;;
51495;SDS011;37572;52.094;4.870;2023-04-15T09:01:00;6.18;;;4.10;;
51495;SDS011;37572;52.094;4.870;2023-04-15T09:03:25;7.63;;;4.20;;
51495;SDS011;37572;52.094;4.870;2023-04-15T09:05:52;8.85;;;4.50;;
51495;SDS011;37572;52.094;4.870;2023-04-15T09:08:18;7.38;;;4.13;;
51495;SDS011;37572;52.094;4.870;2023-04-15T09:10:43;6.50;;;3.70;;
51495;SDS011;37572;52.094;4.870;2023-04-15T09:13:09;6.13;;;3.53;;
51495;SDS011;37572;52.094;4.870;2023-04-15T09:15:37;4.88;;;3.33;;
51495;SDS011;37572;52.094;4.870;2023-04-15T09:18:03;6.70;;;3.70;;
51495;SDS011;37572;52.094;4.870;2023-04-15T09:20:28;6.18;;;3.72;;
51495;SDS011;37572;52.094;4.870;2023-04-15T09:22:54;5.53;;;3.85;;
51495;SDS011;37572;52.094;4.870;2023-04-15T09:27:48;6.17;;;3.90;;
51495;SDS011;37572;52.094;4.870;2023-04-15T09:30:18;6.10;;;3.42;;
51495;SDS011;37572;52.094;4.870;2023-04-15T09:32:48;5.90;;;3.63;;
51495;SDS011;37572;52.094;4.870;2023-04-15T09:35:24;7.40;;;4.50;;
51495;SDS011;37572;52.094;4.870;2023-04-15T09:37:51;6.85;;;4.35;;
51495;SDS011;37572;52.094;4.870;2023-04-15T09:40:34;6.85;;;4.20;;
51495;SDS011;37572;52.094;4.870;2023-04-15T09:43:01;6.82;;;4.53;;
51495;SDS011;37572;52.094;4.870;2023-04-15T09:45:28;6.25;;;4.15;;
51495;SDS011;37572;52.094;4.870;2023-04-15T09:47:53;6.28;;;4.10;;
51495;SDS011;37572;52.094;4.870;2023-04-15T09:50:19;6.65;;;4.20;;
51495;SDS011;37572;52.094;4.870;2023-04-15T09:52:45;5.00;;;3.53;;
51495;SDS011;37572;52.094;4.870;2023-04-15T09:55:11;5.35;;;3.53;;
51495;SDS011;37572;52.094;4.870;2023-04-15T09:57:38;4.82;;;2.95;;
51495;SDS011;37572;52.094;4.870;2023-04-15T10:00:05;5.57;;;3.40;;
51495;SDS011;37572;52.094;4.870;2023-04-15T10:02:33;5.85;;;3.60;;
51495;SDS011;37572;52.094;4.870;2023-04-15T10:05:00;4.70;;;2.88;;
51495;SDS011;37572;52.094;4.870;2023-04-15T10:07:26;5.32;;;2.80;;
51495;SDS011;37572;52.094;4.870;2023-04-15T10:09:51;4.22;;;2.75;;
51495;SDS011;37572;52.094;4.870;2023-04-15T10:12:17;4.15;;;2.60;;
51495;SDS011;37572;52.094;4.870;2023-04-15T10:14:43;4.78;;;2.10;;
51495;SDS011;37572;52.094;4.870;2023-04-15T10:17:12;5.05;;;2.50;;
51495;SDS011;37572;52.094;4.870;2023-04-15T10:19:42;5.75;;;2.90;;
51495;SDS011;37572;52.094;4.870;2023-04-15T10:22:08;5.55;;;3.22;;
51495;SDS011;37572;52.094;4.870;2023-04-15T10:24:33;4.38;;;3.47;;
51495;SDS011;37572;52.094;4.870;2023-04-15T10:26:59;5.22;;;3.13;;
51495;SDS011;37572;52.094;4.870;2023-04-15T10:29:26;6.07;;;2.95;;
51495;SDS011;37572;52.094;4.870;2023-04-15T10:31:55;4.82;;;3.15;;
51495;SDS011;37572;52.094;4.870;2023-04-15T10:34:23;4.85;;;3.45;;
51495;SDS011;37572;52.094;4.870;2023-04-15T10:36:50;5.05;;;3.45;;
51495;SDS011;37572;52.094;4.870;2023-04-15T10:44:32;6.28;;;4.07;;
51495;SDS011;37572;52.094;4.870;2023-04-15T10:46:57;7.18;;;4.10;;
51495;SDS011;37572;52.094;4.870;2023-04-15T10:49:24;5.72;;;4.68;;
51495;SDS011;37572;52.094;4.870;2023-04-15T10:51:51;7.53;;;4.32;;
51495;SDS011;37572;52.094;4.870;2023-04-15T10:56:50;6.17;;;4.03;;
51495;SDS011;37572;52.094;4.870;2023-04-15T10:59:16;6.95;;;4.72;;
51495;SDS011;37572;52.094;4.870;2023-04-15T11:01:54;6.45;;;4.13;;
51495;SDS011;37572;52.094;4.870;2023-04-15T11:07:37;7.50;;;4.25;;
51495;SDS011;37572;52.094;4.870;2023-04-15T11:12:37;6.23;;;3.63;;
51495;SDS011;37572;52.094;4.870;2023-04-15T11:17:57;5.65;;;3.42;;
51495;SDS011;37572;52.094;4.870;2023-04-15T11:20:24;5.18;;;3.58;;
51495;SDS011;37572;52.094;4.870;2023-04-15T11:22:50;6.28;;;3.30;;
51495;SDS011;37572;52.094;4.870;2023-04-15T11:25:24;5.35;;;3.22;;
51495;SDS011;37572;52.094;4.870;2023-04-15T11:27:51;5.97;;;3.00;;
51495;SDS011;37572;52.094;4.870;2023-04-15T11:30:18;6.03;;;3.30;;
51495;SDS011;37572;52.094;4.870;2023-04-15T11:32:51;4.43;;;2.85;;
51495;SDS011;37572;52.094;4.870;2023-04-15T11:35:19;5.57;;;2.95;;
51495;SDS011;37572;52.094;4.870;2023-04-15T11:37:45;5.18;;;3.45;;
51495;SDS011;37572;52.094;4.870;2023-04-15T11:40:12;4.75;;;3.10;;
51495;SDS011;37572;52.094;4.870;2023-04-15T11:42:39;5.40;;;2.80;;
51495;SDS011;37572;52.094;4.870;2023-04-15T11:45:08;5.75;;;2.97;;
51495;SDS011;37572;52.094;4.870;2023-04-15T11:47:35;5.10;;;3.30;;
51495;SDS011;37572;52.094;4.870;2023-04-15T11:50:17;4.47;;;3.03;;
51495;SDS011;37572;52.094;4.870;2023-04-15T11:55:18;5.40;;;2.80;;
51495;SDS011;37572;52.094;4.870;2023-04-15T11:57:44;4.50;;;3.20;;
51495;SDS011;37572;52.094;4.870;2023-04-15T12:00:10;6.82;;;3.22;;
51495;SDS011;37572;52.094;4.870;2023-04-15T12:02:36;7.70;;;2.97;;
51495;SDS011;37572;52.094;4.870;2023-04-15T12:05:02;4.05;;;2.50;;
51495;SDS011;37572;52.094;4.870;2023-04-15T12:07:31;4.15;;;2.85;;
51495;SDS011;37572;52.094;4.870;2023-04-15T12:09:57;4.32;;;2.10;;
51495;SDS011;37572;52.094;4.870;2023-04-15T12:12:25;3.80;;;2.45;;
51495;SDS011;37572;52.094;4.870;2023-04-15T12:14:52;3.75;;;2.47;;
51495;SDS011;37572;52.094;4.870;2023-04-15T12:17:18;4.28;;;2.10;;
51495;SDS011;37572;52.094;4.870;2023-04-15T12:19:43;4.27;;;1.90;;
51495;SDS011;37572;52.094;4.870;2023-04-15T12:22:13;5.60;;;2.38;;
51495;SDS011;37572;52.094;4.870;2023-04-15T12:24:40;4.05;;;2.65;;
51495;SDS011;37572;52.094;4.870;2023-04-15T12:27:09;4.28;;;2.35;;
51495;SDS011;37572;52.094;4.870;2023-04-15T12:29:37;4.00;;;2.00;;
51495;SDS011;37572;52.094;4.870;2023-04-15T12:36:59;2.83;;;1.60;;
51495;SDS011;37572;52.094;4.870;2023-04-15T12:39:26;2.38;;;1.40;;
51495;SDS011;37572;52.094;4.870;2023-04-15T12:41:53;3.22;;;1.42;;
51495;SDS011;37572;52.094;4.870;2023-04-15T12:44:20;3.70;;;1.77;;
51495;SDS011;37572;52.094;4.870;2023-04-15T12:46:47;3.00;;;1.35;;
51495;SDS011;37572;52.094;4.870;2023-04-15T12:49:13;2.72;;;1.33;;
51495;SDS011;37572;52.094;4.870;2023-04-15T12:51:40;2.53;;;1.10;;
51495;SDS011;37572;52.094;4.870;2023-04-15T12:54:05;3.00;;;1.02;;
51495;SDS011;37572;52.094;4.870;2023-04-15T12:56:30;3.50;;;1.40;;
51495;SDS011;37572;52.094;4.870;2023-04-15T12:58:56;3.20;;;1.50;;
51495;SDS011;37572;52.094;4.870;2023-04-15T13:01:21;2.73;;;1.23;;
51495;SDS011;37572;52.094;4.870;2023-04-15T13:03:47;2.60;;;1.20;;
51495;SDS011;37572;52.094;4.870;2023-04-15T13:06:12;2.90;;;1.50;;
51495;SDS011;37572;52.094;4.870;2023-04-15T13:08:37;4.82;;;1.70;;
51495;SDS011;37572;52.094;4.870;2023-04-15T13:11:03;2.80;;;1.30;;
51495;SDS011;37572;52.094;4.870;2023-04-15T13:13:28;2.67;;;0.93;;
51495;SDS011;37572;52.094;4.870;2023-04-15T13:15:55;2.63;;;1.33;;
51495;SDS011;37572;52.094;4.870;2023-04-15T13:18:21;3.97;;;1.80;;
51495;SDS011;37572;52.094;4.870;2023-04-15T13:20:47;3.90;;;1.70;;
51495;SDS011;37572;52.094;4.870;2023-04-15T13:23:13;2.67;;;1.20;;
51495;SDS011;37572;52.094;4.870;2023-04-15T13:25:38;3.20;;;1.50;;
51495;SDS011;37572;52.094;4.870;2023-04-15T13:28:04;3.67;;;1.50;;
51495;SDS011;37572;52.094;4.870;2023-04-15T13:30:29;7.67;;;2.00;;
51495;SDS011;37572;52.094;4.870;2023-04-15T13:32:55;3.80;;;1.85;;
51495;SDS011;37572;52.094;4.870;2023-04-15T13:35:20;5.43;;;2.40;;
51495;SDS011;37572;52.094;4.870;2023-04-15T13:37:46;4.13;;;2.00;;
51495;SDS011;37572;52.094;4.870;2023-04-15T13:40:11;6.80;;;2.53;;
51495;SDS011;37572;52.094;4.870;2023-04-15T13:42:37;4.25;;;1.92;;
51495;SDS011;37572;52.094;4.870;2023-04-15T13:45:02;4.75;;;2.22;;
51495;SDS011;37572;52.094;4.870;2023-04-15T13:47:28;4.03;;;2.92;;
51495;SDS011;37572;52.094;4.870;2023-04-15T13:49:53;5.28;;;2.47;;
51495;SDS011;37572;52.094;4.870;2023-04-15T13:52:20;2.88;;;1.90;;
51495;SDS011;37572;52.094;4.870;2023-04-15T13:54:46;5.07;;;2.95;;
51495;SDS011;37572;52.094;4.870;2023-04-15T13:57:11;4.05;;;1.95;;
51495;SDS011;37572;52.094;4.870;2023-04-15T13:59:37;5.72;;;2.40;;
51495;SDS011;37572;52.094;4.870;2023-04-15T14:02:02;3.40;;;2.63;;
51495;SDS011;37572;52.094;4.870;2023-04-15T14:04:29;3.45;;;1.95;;
51495;SDS011;37572;52.094;4.870;2023-04-15T14:06:55;4.43;;;2.10;;
51495;SDS011;37572;52.094;4.870;2023-04-15T14:09:20;3.72;;;2.00;;
51495;SDS011;37572;52.094;4.870;2023-04-15T14:11:47;4.45;;;1.92;;
51495;SDS011;37572;52.094;4.870;2023-04-15T14:14:13;4.03;;;1.80;;
51495;SDS011;37572;52.094;4.870;2023-04-15T14:16:38;4.88;;;2.13;;
51495;SDS011;37572;52.094;4.870;2023-04-15T14:19:04;4.55;;;2.63;;
51495;SDS011;37572;52.094;4.870;2023-04-15T14:21:29;5.30;;;1.90;;
51495;SDS011;37572;52.094;4.870;2023-04-15T14:23:56;3.45;;;1.45;;
51495;SDS011;37572;52.094;4.870;2023-04-15T14:26:22;2.55;;;1.27;;
51495;SDS011;37572;52.094;4.870;2023-04-15T14:28:47;3.47;;;1.30;;
51495;SDS011;37572;52.094;4.870;2023-04-15T14:31:13;4.50;;;2.45;;
51495;SDS011;37572;52.094;4.870;2023-04-15T14:33:38;2.85;;;1.42;;
51495;SDS011;37572;52.094;4.870;2023-04-15T14:36:04;5.20;;;2.80;;
51495;SDS011;37572;52.094;4.870;2023-04-15T14:38:30;2.25;;;1.42;;
51495;SDS011;37572;52.094;4.870;2023-04-15T14:43:27;2.87;;;1.40;;
51495;SDS011;37572;52.094;4.870;2023-04-15T14:45:52;3.20;;;1.07;;
51495;SDS011;37572;52.094;4.870;2023-04-15T14:48:17;3.23;;;1.20;;
51495;SDS011;37572;52.094;4.870;2023-04-15T14:50:43;3.00;;;1.50;;
51495;SDS011;37572;52.094;4.870;2023-04-15T14:53:08;3.40;;;1.60;;
51495;SDS011;37572;52.094;4.870;2023-04-15T14:55:33;2.50;;;1.40;;
51495;SDS011;37572;52.094;4.870;2023-04-15T14:58:00;2.70;;;1.30;;
51495;SDS011;37572;52.094;4.870;2023-04-15T15:00:26;4.80;;;1.30;;
51495;SDS011;37572;52.094;4.870;2023-04-15T15:02:52;2.95;;;1.77;;
51495;SDS011;37572;52.094;4.870;2023-04-15T15:05:17;3.22;;;1.05;;